Time;durP1;ratioP1;P1;durP2;ratioP2;P2;SDS_P1;SDS_P2;PMS_P1;PMS_P2;Temp;Humidity;BMP_temperature;BMP_pressure;BME280_temperature;BME280_humidity;BME280_pressure;Samples;Min_cycle;Max_cycle;Signal;HPM_P1;HPM_P2
2023/03/01 00:00:14;;;;;;;18.87;11.87;;;-0.30;99.90;;;;;;5063350;28;20239;-51
2023/03/01 00:02:42;;;;;;;23.70;13.57;;;-0.30;99.90;;;;;;5052367;28;20197;-53
2023/03/01 00:05:09;;;;;;;20.63;13.57;;;-0.30;99.90;;;;;;5046128;28;20535;-52
2023/03/01 00:07:36;;;;;;;23.40;14.10;;;-0.30;99.90;;;;;;5041930;28;20224;-53
2023/03/01 00:10:04;;;;;;;16.67;11.40;;;-0.40;99.90;;;;;;5041042;28;20247;-52
2023/03/01 00:12:31;;;;;;;19.87;12.23;;;-0.30;99.90;;;;;;5046786;28;21014;-54
2023/03/01 00:14:58;;;;;;;18.87;12.23;;;-0.30;99.90;;;;;;5037881;28;20598;-53
2023/03/01 00:17:25;;;;;;;21.93;12.47;;;-0.30;99.90;;;;;;5039883;28;20206;-53
2023/03/01 00:19:54;;;;;;;25.37;13.90;;;-0.30;99.90;;;;;;5044130;28;20197;-51
2023/03/01 00:22:21;;;;;;;19.33;12.83;;;-0.40;99.90;;;;;;5042260;28;20217;-52
2023/03/01 00:24:47;;;;;;;19.13;13.47;;;-0.40;99.90;;;;;;5045688;28;20216;-50
2023/03/01 00:27:14;;;;;;;16.80;11.47;;;-0.40;99.90;;;;;;5061964;28;20224;-54
2023/03/01 00:29:41;;;;;;;15.30;10.67;;;-0.40;99.90;;;;;;5047263;28;20311;-52
2023/03/01 00:32:08;;;;;;;20.83;11.53;;;-0.50;99.90;;;;;;5061563;28;20342;-51
2023/03/01 00:34:34;;;;;;;13.60;9.40;;;-0.50;99.90;;;;;;5041320;28;20200;-52
2023/03/01 00:37:05;;;;;;;14.13;9.03;;;-0.40;99.90;;;;;;5037364;28;20222;-52
2023/03/01 00:39:33;;;;;;;11.93;9.00;;;-0.50;99.90;;;;;;5039202;28;20300;-54
2023/03/01 00:41:59;;;;;;;15.27;9.67;;;-0.50;99.90;;;;;;5043581;28;20299;-54
2023/03/01 00:44:26;;;;;;;14.47;9.37;;;-0.50;99.90;;;;;;5034054;28;20212;-52
2023/03/01 00:46:53;;;;;;;18.40;10.47;;;-0.50;99.90;;;;;;5043927;28;20203;-55
2023/03/01 00:49:20;;;;;;;15.63;9.90;;;-0.40;99.90;;;;;;5040885;28;20770;-53
2023/03/01 00:51:47;;;;;;;16.67;8.93;;;-0.50;99.90;;;;;;5032747;28;20237;-54
2023/03/01 00:54:15;;;;;;;15.30;9.30;;;-0.50;99.90;;;;;;5047696;28;20208;-53
2023/03/01 00:56:42;;;;;;;15.97;9.13;;;-0.50;99.90;;;;;;5044309;28;20201;-51
2023/03/01 00:59:08;;;;;;;16.60;9.53;;;-0.50;99.90;;;;;;5046315;28;20200;-51
2023/03/01 01:01:35;;;;;;;12.13;8.70;;;-0.40;99.90;;;;;;5036961;28;20221;-50
2023/03/01 01:04:05;;;;;;;13.20;9.07;;;-0.40;99.90;;;;;;5041950;28;20199;-54
2023/03/01 01:06:33;;;;;;;10.47;8.33;;;-0.40;99.90;;;;;;5027806;28;20210;-54
2023/03/01 01:09:02;;;;;;;11.40;8.83;;;-0.50;99.90;;;;;;5052552;28;20327;-53
2023/03/01 01:11:30;;;;;;;17.87;9.37;;;-0.50;99.90;;;;;;5045734;28;20228;-52
2023/03/01 01:13:58;;;;;;;11.87;7.93;;;-0.60;99.90;;;;;;5048765;28;20230;-52
2023/03/01 01:16:27;;;;;;;12.73;8.43;;;-0.60;99.90;;;;;;5039619;28;20205;-51
2023/03/01 01:18:54;;;;;;;13.53;8.93;;;-0.60;99.90;;;;;;5062001;28;20607;-52
2023/03/01 01:21:23;;;;;;;18.37;9.53;;;-0.60;99.90;;;;;;5047654;28;20219;-53
2023/03/01 01:23:52;;;;;;;12.87;9.23;;;-0.70;99.90;;;;;;5045594;28;20212;-52
2023/03/01 01:26:22;;;;;;;16.97;8.60;;;-0.70;99.90;;;;;;5047756;28;20208;-52
2023/03/01 01:28:52;;;;;;;12.93;9.07;;;-0.60;99.90;;;;;;5042782;28;20228;-51
2023/03/01 01:31:19;;;;;;;16.83;9.13;;;-0.60;99.90;;;;;;5048568;28;20220;-52
2023/03/01 01:33:46;;;;;;;14.93;8.97;;;-0.60;99.90;;;;;;5052514;28;20206;-52
2023/03/01 01:36:13;;;;;;;14.43;9.13;;;-0.70;99.90;;;;;;5039586;28;20216;-55
2023/03/01 01:38:42;;;;;;;14.87;8.80;;;-0.70;99.90;;;;;;5038497;28;20202;-51
2023/03/01 01:41:11;;;;;;;15.67;9.10;;;-0.70;99.90;;;;;;5043661;28;20604;-55
2023/03/01 01:43:41;;;;;;;14.17;9.53;;;-0.70;99.90;;;;;;5045659;28;20196;-55
2023/03/01 01:46:21;;;;;;;15.53;8.87;;;-0.70;99.90;;;;;;5047927;28;20283;-53
2023/03/01 01:48:53;;;;;;;15.83;8.13;;;-0.70;99.90;;;;;;5055927;28;20225;-54
2023/03/01 01:51:25;;;;;;;12.40;7.73;;;-0.70;99.90;;;;;;5058220;28;20227;-53
2023/03/01 01:53:55;;;;;;;12.27;7.40;;;-0.70;99.90;;;;;;5039893;28;20221;-52
2023/03/01 01:56:24;;;;;;;10.67;7.50;;;-0.70;99.90;;;;;;5042010;28;20207;-51
2023/03/01 01:58:51;;;;;;;13.57;8.00;;;-0.70;99.90;;;;;;5042998;28;20209;-52
2023/03/01 02:01:20;;;;;;;9.97;7.83;;;-0.70;99.90;;;;;;5040237;28;20232;-53
2023/03/01 02:03:48;;;;;;;13.47;7.53;;;-0.70;99.90;;;;;;5044108;28;20547;-52
2023/03/01 02:06:22;;;;;;;9.73;7.07;;;-0.70;99.90;;;;;;5060167;28;20204;-52
2023/03/01 02:08:52;;;;;;;10.37;7.10;;;-0.80;99.90;;;;;;5045420;28;20218;-49
2023/03/01 02:11:20;;;;;;;10.97;7.77;;;-0.90;99.90;;;;;;5046583;28;20218;-53
2023/03/01 02:13:49;;;;;;;16.00;8.20;;;-0.90;99.90;;;;;;5047970;28;20214;-52
2023/03/01 02:16:18;;;;;;;12.60;7.83;;;-0.80;99.90;;;;;;5048791;28;20262;-53
2023/03/01 02:18:45;;;;;;;10.97;7.37;;;-0.80;99.90;;;;;;5039174;28;20199;-48
2023/03/01 02:21:29;;;;;;;10.33;7.30;;;-0.80;99.90;;;;;;5047866;28;20232;-52
2023/03/01 02:23:57;;;;;;;10.77;8.13;;;-0.80;99.90;;;;;;5036943;28;20187;-57
2023/03/01 02:26:34;;;;;;;11.03;7.00;;;-0.90;99.90;;;;;;5049563;28;20215;-50
2023/03/01 02:29:02;;;;;;;12.53;7.33;;;-0.90;99.90;;;;;;5044871;28;20269;-54
2023/03/01 02:31:44;;;;;;;14.00;8.43;;;-1.00;99.90;;;;;;5062807;28;20236;-52
2023/03/01 02:34:15;;;;;;;16.40;8.60;;;-1.00;99.90;;;;;;5052175;28;20274;-48
2023/03/01 02:36:46;;;;;;;11.07;8.20;;;-1.00;99.90;;;;;;5046833;28;20209;-50
2023/03/01 02:39:19;;;;;;;15.77;9.00;;;-1.00;99.90;;;;;;5042745;28;20185;-51
2023/03/01 02:41:48;;;;;;;11.47;8.07;;;-1.00;99.90;;;;;;5033142;28;20233;-53
2023/03/01 02:44:17;;;;;;;13.97;8.47;;;-1.00;99.90;;;;;;5045180;28;20337;-52
2023/03/01 02:46:45;;;;;;;11.63;8.53;;;-1.00;99.90;;;;;;5045770;28;20208;-50
2023/03/01 02:49:25;;;;;;;14.87;9.10;;;-1.00;99.90;;;;;;5039391;28;20267;-50
2023/03/01 02:52:21;;;;;;;14.50;8.97;;;-1.00;99.90;;;;;;5051067;28;20704;-54
2023/03/01 02:54:51;;;;;;;12.23;8.60;;;-1.00;99.90;;;;;;5042692;28;20265;-56
2023/03/01 02:57:19;;;;;;;13.07;8.97;;;-1.10;99.90;;;;;;5047998;28;20192;-50
2023/03/01 02:59:49;;;;;;;11.67;8.77;;;-1.10;99.90;;;;;;5040413;28;20200;-52
2023/03/01 03:02:35;;;;;;;13.30;8.30;;;-1.10;99.90;;;;;;5041437;28;20231;-47
2023/03/01 03:05:10;;;;;;;15.13;8.33;;;-1.10;99.90;;;;;;5047237;28;20331;-55
2023/03/01 03:07:39;;;;;;;14.77;9.27;;;-1.10;99.90;;;;;;5044702;28;20208;-49
2023/03/01 03:10:09;;;;;;;11.33;8.20;;;-1.10;99.90;;;;;;5029991;28;20445;-55
2023/03/01 03:12:36;;;;;;;18.20;9.93;;;-1.10;99.90;;;;;;5052014;28;20217;-49
2023/03/01 03:15:08;;;;;;;16.23;9.60;;;-1.10;99.90;;;;;;5040255;28;20615;-53
2023/03/01 03:17:36;;;;;;;11.67;8.87;;;-1.10;99.90;;;;;;5047826;28;20236;-52
2023/03/01 03:20:04;;;;;;;16.27;9.37;;;-1.10;99.90;;;;;;5035828;28;20287;-53
2023/03/01 03:22:31;;;;;;;14.70;8.93;;;-1.10;99.90;;;;;;5060510;28;20236;-48
2023/03/01 03:24:57;;;;;;;11.57;8.30;;;-1.10;99.90;;;;;;5053145;28;20704;-53
2023/03/01 03:27:24;;;;;;;15.40;9.13;;;-1.00;99.90;;;;;;5045368;28;20207;-50
2023/03/01 03:29:51;;;;;;;11.07;8.00;;;-1.00;99.90;;;;;;5049677;28;20211;-54
2023/03/01 03:32:19;;;;;;;12.63;8.03;;;-1.00;99.90;;;;;;5058236;28;20967;-50
2023/03/01 03:34:46;;;;;;;11.97;8.23;;;-1.00;99.90;;;;;;5053856;28;20250;-53
2023/03/01 03:39:54;;;;;;;8.80;6.23;;;-0.90;99.90;;;;;;5043518;28;20204;-55
2023/03/01 03:42:22;;;;;;;9.87;7.13;;;-0.90;99.90;;;;;;5038493;28;20419;-51
2023/03/01 03:44:49;;;;;;;9.97;7.40;;;-0.90;99.90;;;;;;5048206;28;20203;-52
2023/03/01 03:47:16;;;;;;;10.33;7.40;;;-0.80;99.90;;;;;;5042523;28;20278;-50
2023/03/01 03:49:44;;;;;;;12.53;7.20;;;-0.80;99.90;;;;;;5043729;28;20678;-51
2023/03/01 03:52:13;;;;;;;12.73;7.93;;;-0.80;99.90;;;;;;5039856;28;20228;-51
2023/03/01 03:54:41;;;;;;;13.53;7.27;;;-0.70;99.90;;;;;;5063905;28;20279;-50
2023/03/01 03:57:07;;;;;;;14.07;7.47;;;-0.70;99.90;;;;;;5040730;28;20882;-49
2023/03/01 03:59:35;;;;;;;10.63;6.93;;;-0.80;99.90;;;;;;5050762;28;20276;-49
2023/03/01 04:02:02;;;;;;;9.70;6.90;;;-0.80;99.90;;;;;;5047105;28;20757;-50
2023/03/01 04:04:29;;;;;;;10.17;7.80;;;-0.80;99.90;;;;;;5048831;28;20195;-52
2023/03/01 04:06:57;;;;;;;8.77;6.83;;;-0.70;99.90;;;;;;5039101;28;20210;-48
2023/03/01 04:09:23;;;;;;;13.47;8.30;;;-0.70;99.90;;;;;;5060483;28;20309;-53
2023/03/01 04:11:50;;;;;;;12.17;8.60;;;-0.70;99.90;;;;;;5048197;28;20284;-49
2023/03/01 04:14:17;;;;;;;14.50;8.40;;;-0.70;99.90;;;;;;5051176;28;20201;-54
2023/03/01 04:16:43;;;;;;;15.20;8.87;;;-0.80;99.90;;;;;;5043002;28;20195;-50
2023/03/01 04:19:10;;;;;;;12.63;8.70;;;-0.70;99.90;;;;;;5063395;28;20231;-52
2023/03/01 04:21:37;;;;;;;12.67;8.67;;;-0.70;99.90;;;;;;5052486;28;20223;-50
2023/03/01 04:24:06;;;;;;;13.90;8.67;;;-0.70;99.90;;;;;;5041545;28;20550;-52
2023/03/01 04:26:33;;;;;;;13.70;9.70;;;-0.70;99.90;;;;;;5040659;28;20883;-48
2023/03/01 04:28:59;;;;;;;13.37;8.83;;;-0.60;99.90;;;;;;5035530;28;20247;-50
2023/03/01 04:31:26;;;;;;;13.10;8.60;;;-0.60;99.90;;;;;;5037439;28;20223;-54
2023/03/01 04:33:55;;;;;;;15.23;8.67;;;-0.60;99.90;;;;;;5038979;28;20204;-54
2023/03/01 04:36:24;;;;;;;11.03;8.67;;;-0.60;99.90;;;;;;5045444;28;20219;-54
2023/03/01 04:38:52;;;;;;;11.60;8.27;;;-0.50;99.90;;;;;;5041696;28;20664;-53
2023/03/01 04:41:23;;;;;;;15.30;8.83;;;-0.50;99.90;;;;;;5041015;28;20219;-53
2023/03/01 04:43:51;;;;;;;12.63;8.57;;;-0.40;99.90;;;;;;5033661;28;20204;-48
2023/03/01 04:46:19;;;;;;;11.97;8.73;;;-0.40;99.90;;;;;;5059228;28;20222;-55
2023/03/01 04:48:47;;;;;;;11.83;8.20;;;-0.40;99.90;;;;;;5043876;28;20341;-53
2023/03/01 04:51:14;;;;;;;11.00;8.50;;;-0.30;99.90;;;;;;5061710;28;20307;-55
2023/03/01 04:53:42;;;;;;;12.93;8.87;;;-0.30;99.90;;;;;;5049445;28;20935;-52
2023/03/01 04:56:13;;;;;;;14.83;9.90;;;-0.20;99.90;;;;;;5062033;28;20205;-52
2023/03/01 04:58:42;;;;;;;13.00;8.80;;;-0.20;99.90;;;;;;5045115;28;22211;-52
2023/03/01 05:01:14;;;;;;;11.87;8.83;;;-0.10;99.90;;;;;;5044106;28;20585;-54
2023/03/01 05:03:42;;;;;;;11.77;8.50;;;-0.10;99.90;;;;;;5035799;28;20246;-49
2023/03/01 05:06:09;;;;;;;11.03;8.97;;;0.00;99.90;;;;;;5058335;28;20209;-53
2023/03/01 05:08:37;;;;;;;13.70;9.27;;;0.00;99.90;;;;;;5035630;28;21401;-49
2023/03/01 05:11:04;;;;;;;9.77;8.07;;;0.00;99.90;;;;;;5046599;28;20298;-51
2023/03/01 05:13:31;;;;;;;12.87;8.50;;;0.00;99.90;;;;;;5039003;28;20200;-50
2023/03/01 05:16:01;;;;;;;12.47;8.23;;;0.10;99.90;;;;;;5036016;28;20219;-49
2023/03/01 05:18:30;;;;;;;11.67;7.93;;;0.10;99.90;;;;;;5037234;28;20577;-56
2023/03/01 05:21:05;;;;;;;11.57;8.53;;;0.10;99.90;;;;;;5048728;28;20740;-50
2023/03/01 05:23:32;;;;;;;11.87;7.70;;;0.10;99.90;;;;;;5033575;28;20215;-47
2023/03/01 05:25:59;;;;;;;10.77;7.60;;;0.20;99.90;;;;;;5050943;28;20646;-47
2023/03/01 05:28:27;;;;;;;11.00;7.07;;;0.20;99.90;;;;;;5039556;28;20210;-54
2023/03/01 05:30:54;;;;;;;11.47;7.40;;;0.20;99.90;;;;;;5033921;28;20217;-48
2023/03/01 05:33:22;;;;;;;9.10;6.93;;;0.20;99.90;;;;;;5045800;28;20819;-54
2023/03/01 05:35:51;;;;;;;8.97;6.80;;;0.30;99.90;;;;;;5054701;28;20215;-53
2023/03/01 05:38:18;;;;;;;9.33;6.77;;;0.30;99.90;;;;;;5054969;28;20568;-55
2023/03/01 05:40:48;;;;;;;10.67;6.70;;;0.30;99.90;;;;;;5052116;28;20433;-48
2023/03/01 05:43:17;;;;;;;10.00;7.17;;;0.30;99.90;;;;;;5044607;28;20205;-53
2023/03/01 05:45:45;;;;;;;8.30;6.87;;;0.30;99.90;;;;;;5027432;28;20214;-55
2023/03/01 05:48:13;;;;;;;9.07;6.87;;;0.30;99.90;;;;;;5053430;28;20196;-52
2023/03/01 05:50:43;;;;;;;9.43;6.57;;;0.30;99.90;;;;;;5053266;28;20260;-54
2023/03/01 05:53:31;;;;;;;11.47;6.70;;;0.30;99.90;;;;;;5046398;28;20205;-48
2023/03/01 05:55:58;;;;;;;8.67;7.10;;;0.30;99.90;;;;;;5044585;28;20200;-53
2023/03/01 05:58:25;;;;;;;11.60;6.73;;;0.30;99.90;;;;;;5046700;28;20211;-55
2023/03/01 06:00:52;;;;;;;9.07;6.43;;;0.30;99.90;;;;;;5036751;28;20225;-55
2023/03/01 06:03:39;;;;;;;8.30;6.33;;;0.20;99.90;;;;;;5055723;28;20295;-54
2023/03/01 06:06:08;;;;;;;7.37;6.40;;;0.20;99.90;;;;;;5049856;28;20201;-52
2023/03/01 06:08:34;;;;;;;8.37;6.27;;;0.20;99.90;;;;;;5052883;28;20653;-50
2023/03/01 06:11:01;;;;;;;9.80;7.30;;;0.10;99.90;;;;;;5040569;28;20998;-50
2023/03/01 06:13:29;;;;;;;11.87;6.13;;;0.10;99.90;;;;;;5065386;28;20208;-52
2023/03/01 06:15:56;;;;;;;9.03;6.10;;;0.10;99.90;;;;;;5037472;28;20616;-53
2023/03/01 06:18:22;;;;;;;9.57;6.80;;;0.10;99.90;;;;;;5054378;28;20208;-53
2023/03/01 06:20:54;;;;;;;10.73;6.57;;;0.10;99.90;;;;;;5050566;28;20263;-54
2023/03/01 06:23:22;;;;;;;8.43;6.53;;;0.10;99.90;;;;;;5046941;28;20220;-52
2023/03/01 06:25:48;;;;;;;10.70;6.63;;;0.10;99.90;;;;;;5047904;28;20196;-55
2023/03/01 06:28:16;;;;;;;7.93;6.33;;;0.20;99.90;;;;;;5051450;28;20187;-47
2023/03/01 06:30:45;;;;;;;7.80;6.33;;;0.20;99.90;;;;;;5050312;28;20223;-54
2023/03/01 06:33:12;;;;;;;8.63;6.50;;;0.20;99.90;;;;;;5045729;28;20200;-50
2023/03/01 06:35:40;;;;;;;10.53;6.27;;;0.20;99.90;;;;;;5054247;28;20201;-55
2023/03/01 06:38:08;;;;;;;8.77;6.33;;;0.20;99.90;;;;;;5043621;28;20217;-54
2023/03/01 06:40:37;;;;;;;9.37;5.70;;;0.20;99.90;;;;;;5036482;28;20196;-50
2023/03/01 06:43:04;;;;;;;10.40;6.93;;;0.30;99.90;;;;;;5040116;28;21063;-47
2023/03/01 06:45:30;;;;;;;8.33;6.07;;;0.30;99.90;;;;;;5045576;28;20293;-48
2023/03/01 06:48:04;;;;;;;8.70;6.17;;;0.40;99.90;;;;;;5036707;28;20699;-54
2023/03/01 06:50:31;;;;;;;8.70;6.07;;;0.50;99.90;;;;;;5052163;28;20301;-50
2023/03/01 06:52:57;;;;;;;9.87;6.03;;;0.50;99.90;;;;;;5044714;28;20202;-53
2023/03/01 06:55:25;;;;;;;9.97;6.47;;;0.60;99.90;;;;;;5047558;28;20289;-48
2023/03/01 06:57:56;;;;;;;7.60;5.63;;;0.60;99.90;;;;;;5040279;28;20212;-54
2023/03/01 07:00:24;;;;;;;7.73;5.90;;;0.70;99.90;;;;;;5051007;28;20205;-47
2023/03/01 07:02:53;;;;;;;9.73;6.33;;;0.70;99.90;;;;;;5041102;28;20251;-54
2023/03/01 07:05:20;;;;;;;11.73;6.40;;;0.70;99.90;;;;;;5049043;28;20209;-49
2023/03/01 07:07:49;;;;;;;12.23;6.77;;;0.80;99.90;;;;;;5046348;28;20216;-52
2023/03/01 07:10:17;;;;;;;10.93;6.93;;;0.90;99.90;;;;;;5047752;28;20208;-48
2023/03/01 07:12:46;;;;;;;10.30;6.83;;;0.90;99.90;;;;;;5038267;28;20618;-54
2023/03/01 07:15:36;;;;;;;8.83;6.63;;;1.00;99.90;;;;;;5045637;28;20218;-55
2023/03/01 07:18:04;;;;;;;9.53;6.93;;;1.10;99.90;;;;;;5062309;28;20470;-48
2023/03/01 07:20:32;;;;;;;11.63;7.03;;;1.20;99.90;;;;;;5047136;28;20205;-51
2023/03/01 07:22:58;;;;;;;11.27;7.67;;;1.20;99.90;;;;;;5039078;28;20248;-51
2023/03/01 07:25:25;;;;;;;17.70;8.17;;;1.30;99.90;;;;;;5051377;28;20236;-50
2023/03/01 07:27:53;;;;;;;15.43;8.20;;;1.30;99.90;;;;;;5038331;28;20280;-49
2023/03/01 07:30:21;;;;;;;15.63;9.43;;;1.30;99.90;;;;;;5059957;28;20232;-53
2023/03/01 07:32:49;;;;;;;12.37;7.73;;;1.40;99.90;;;;;;5058123;28;20207;-51
2023/03/01 07:35:16;;;;;;;12.60;8.30;;;1.40;99.90;;;;;;5032549;28;20206;-54
2023/03/01 07:37:43;;;;;;;10.87;7.90;;;1.40;99.90;;;;;;5052085;28;20282;-51
2023/03/01 07:40:11;;;;;;;13.13;7.67;;;1.50;99.90;;;;;;5039400;28;20218;-54
2023/03/01 07:42:40;;;;;;;12.60;8.20;;;1.60;99.90;;;;;;5056625;28;20648;-53
2023/03/01 07:45:08;;;;;;;12.47;8.17;;;1.60;99.90;;;;;;5052226;28;20211;-54
2023/03/01 07:47:36;;;;;;;10.33;8.23;;;1.60;99.90;;;;;;5063061;28;20204;-55
2023/03/01 07:50:05;;;;;;;12.47;8.53;;;1.70;99.90;;;;;;5035803;28;21042;-53
2023/03/01 07:52:52;;;;;;;13.73;9.43;;;1.70;99.90;;;;;;5050530;28;20209;-48
2023/03/01 07:55:20;;;;;;;15.20;8.93;;;1.80;99.90;;;;;;5051040;28;20627;-50
2023/03/01 07:57:47;;;;;;;16.40;10.33;;;1.90;99.90;;;;;;5050389;28;20191;-54
2023/03/01 08:00:15;;;;;;;16.60;10.03;;;1.90;99.90;;;;;;5056125;28;20298;-49
2023/03/01 08:02:42;;;;;;;13.27;9.13;;;1.90;99.90;;;;;;5051801;28;20261;-54
2023/03/01 08:05:11;;;;;;;12.47;9.00;;;2.00;99.90;;;;;;5037781;28;20666;-48
2023/03/01 08:07:39;;;;;;;16.13;9.80;;;1.90;99.90;;;;;;5050951;28;20203;-53
2023/03/01 08:10:07;;;;;;;14.10;9.13;;;1.90;99.90;;;;;;5040080;28;21369;-50
2023/03/01 08:12:34;;;;;;;12.83;8.80;;;1.90;99.90;;;;;;5047901;28;20332;-51
2023/03/01 08:15:00;;;;;;;11.90;8.27;;;2.00;99.90;;;;;;5045835;28;20217;-51
2023/03/01 08:17:27;;;;;;;12.33;9.23;;;2.00;99.90;;;;;;5049081;28;20217;-51
2023/03/01 08:20:18;;;;;;;12.03;8.97;;;2.10;99.90;;;;;;5031060;28;20586;-55
2023/03/01 08:22:45;;;;;;;10.80;8.70;;;2.10;99.90;;;;;;5045274;28;20217;-47
2023/03/01 08:25:12;;;;;;;12.43;8.60;;;2.10;99.90;;;;;;5046651;28;20212;-53
2023/03/01 08:27:59;;;;;;;12.57;8.57;;;2.20;99.90;;;;;;5048886;28;20224;-47
2023/03/01 08:30:26;;;;;;;13.83;9.80;;;2.20;99.90;;;;;;5040399;28;21510;-48
2023/03/01 08:32:53;;;;;;;12.03;9.27;;;2.40;99.90;;;;;;5042409;28;20206;-55
2023/03/01 08:35:22;;;;;;;15.10;9.50;;;2.50;99.90;;;;;;5038986;28;20205;-48
2023/03/01 08:37:49;;;;;;;12.67;8.77;;;2.50;99.90;;;;;;5039457;28;20260;-56
2023/03/01 08:40:16;;;;;;;14.33;9.43;;;2.50;99.90;;;;;;5046173;28;20897;-52
2023/03/01 08:42:43;;;;;;;14.40;9.27;;;2.60;99.90;;;;;;5039342;28;20253;-55
2023/03/01 08:45:11;;;;;;;17.50;10.00;;;2.60;99.90;;;;;;5034363;28;20195;-47
2023/03/01 08:47:39;;;;;;;11.57;8.53;;;2.60;99.90;;;;;;5049703;28;20316;-48
2023/03/01 08:50:07;;;;;;;12.53;9.77;;;2.70;99.90;;;;;;5037872;28;20218;-50
2023/03/01 08:52:37;;;;;;;12.27;9.23;;;2.70;99.90;;;;;;5037674;28;20301;-47
2023/03/01 08:55:04;;;;;;;16.27;10.00;;;2.70;99.90;;;;;;5040289;28;20678;-54
2023/03/01 08:57:31;;;;;;;12.53;9.60;;;2.70;99.90;;;;;;5045615;28;20202;-48
2023/03/01 08:59:58;;;;;;;13.47;9.00;;;2.80;99.90;;;;;;5039712;28;20207;-55
2023/03/01 09:02:24;;;;;;;16.70;9.83;;;2.80;99.90;;;;;;5046114;28;20852;-47
2023/03/01 09:04:51;;;;;;;15.20;9.20;;;2.90;99.90;;;;;;5050968;28;20229;-56
2023/03/01 09:07:18;;;;;;;15.63;10.20;;;2.90;99.90;;;;;;5028326;28;20348;-47
2023/03/01 09:09:47;;;;;;;18.67;10.07;;;2.90;99.90;;;;;;5044977;28;20199;-54
2023/03/01 09:12:14;;;;;;;14.03;9.83;;;3.10;99.90;;;;;;5041051;28;20227;-47
2023/03/01 09:14:41;;;;;;;14.07;9.50;;;3.10;99.90;;;;;;5043832;28;20797;-48
2023/03/01 09:17:08;;;;;;;14.13;9.77;;;3.20;99.90;;;;;;5036707;28;20230;-48
2023/03/01 09:19:36;;;;;;;16.20;10.10;;;3.30;99.90;;;;;;5050606;28;20197;-47
2023/03/01 09:22:04;;;;;;;15.83;10.37;;;3.40;99.90;;;;;;5025107;28;20233;-54
2023/03/01 09:24:31;;;;;;;17.47;11.10;;;3.40;99.90;;;;;;5047551;28;20201;-47
2023/03/01 09:27:22;;;;;;;22.77;10.83;;;3.50;99.90;;;;;;5039115;28;22720;-48
2023/03/01 09:29:48;;;;;;;17.50;10.50;;;3.60;99.90;;;;;;5049317;28;20749;-52
2023/03/01 09:32:16;;;;;;;13.43;9.70;;;3.60;99.90;;;;;;5038906;28;20301;-49
2023/03/01 09:37:50;;;;;;;12.90;9.77;;;3.60;99.90;;;;;;5044208;28;20704;-55
2023/03/01 09:40:20;;;;;;;18.73;9.73;;;3.60;99.90;;;;;;5036583;28;20191;-47
2023/03/01 09:43:20;;;;;;;12.23;8.83;;;3.70;99.90;;;;;;5043270;28;20917;-48
2023/03/01 09:45:51;;;;;;;14.37;9.43;;;3.80;99.90;;;;;;5061867;28;20210;-54
2023/03/01 09:48:23;;;;;;;12.90;8.70;;;3.80;99.90;;;;;;5046460;28;20301;-50
2023/03/01 09:50:53;;;;;;;14.67;8.70;;;3.90;99.90;;;;;;5039761;28;20222;-54
2023/03/01 09:53:23;;;;;;;12.50;9.47;;;4.00;99.90;;;;;;5043440;28;20304;-53
2023/03/01 09:55:57;;;;;;;12.77;8.83;;;4.00;99.90;;;;;;5031183;28;20214;-54
2023/03/01 09:58:42;;;;;;;12.37;9.00;;;4.10;99.90;;;;;;5041906;28;20225;-51
2023/03/01 10:01:34;;;;;;;11.67;9.40;;;4.20;99.90;;;;;;5045717;28;20214;-47
2023/03/01 10:04:26;;;;;;;13.17;8.87;;;4.20;99.90;;;;;;5040278;28;20252;-53
2023/03/01 10:07:06;;;;;;;11.07;8.40;;;4.40;99.90;;;;;;5049239;28;20257;-53
2023/03/01 10:09:35;;;;;;;13.37;9.70;;;4.40;99.90;;;;;;5034874;28;20760;-49
2023/03/01 10:12:05;;;;;;;12.90;8.57;;;4.50;99.90;;;;;;5037794;28;20215;-55
2023/03/01 10:15:03;;;;;;;14.73;8.27;;;4.60;99.90;;;;;;5040742;28;20314;-52
2023/03/01 10:17:36;;;;;;;25.57;8.27;;;4.60;99.90;;;;;;5042975;28;20191;-47
2023/03/01 10:20:17;;;;;;;11.33;7.70;;;4.60;99.90;;;;;;5035033;28;20269;-47
2023/03/01 10:22:50;;;;;;;11.23;7.90;;;4.70;99.90;;;;;;5047992;28;20240;-53
2023/03/01 10:25:36;;;;;;;10.10;7.60;;;4.60;99.90;;;;;;5031413;28;20223;-52
2023/03/01 10:28:27;;;;;;;14.07;7.87;;;4.60;99.90;;;;;;5044168;28;22959;-48
2023/03/01 10:30:58;;;;;;;16.20;8.00;;;4.70;99.90;;;;;;5044250;28;20222;-53
2023/03/01 10:33:30;;;;;;;11.83;7.70;;;4.70;99.90;;;;;;5047734;28;20200;-48
2023/03/01 10:35:56;;;;;;;11.23;7.43;;;4.70;99.90;;;;;;5049678;28;20305;-54
2023/03/01 10:38:52;;;;;;;11.40;7.30;;;4.70;99.90;;;;;;5046854;28;20340;-50
2023/03/01 10:41:53;;;;;;;11.90;8.23;;;4.60;99.90;;;;;;5040055;28;20222;-47
2023/03/01 10:44:45;;;;;;;10.97;7.60;;;4.70;99.90;;;;;;5050219;28;20213;-49
2023/03/01 10:47:21;;;;;;;10.57;7.23;;;4.70;99.90;;;;;;5052709;28;20923;-48
2023/03/01 10:49:57;;;;;;;14.00;8.40;;;4.70;99.90;;;;;;5059015;28;20199;-55
2023/03/01 10:52:27;;;;;;;11.17;7.77;;;4.80;99.90;;;;;;5040852;28;20767;-49
2023/03/01 10:54:57;;;;;;;9.63;7.43;;;4.70;99.90;;;;;;5045415;28;20211;-53
2023/03/01 10:57:40;;;;;;;11.07;7.50;;;4.60;99.90;;;;;;5030777;28;20235;-51
2023/03/01 11:00:23;;;;;;;13.43;8.13;;;4.70;99.90;;;;;;5042223;28;20214;-52
2023/03/01 11:03:15;;;;;;;10.20;7.53;;;4.70;99.90;;;;;;5053982;28;21011;-51
2023/03/01 11:05:57;;;;;;;10.67;8.07;;;4.70;99.90;;;;;;5055143;28;20282;-49
2023/03/01 11:08:41;;;;;;;9.37;6.97;;;4.70;99.90;;;;;;5050014;28;20203;-49
2023/03/01 11:11:24;;;;;;;12.73;8.27;;;4.80;99.90;;;;;;5043476;28;20970;-48
2023/03/01 11:13:54;;;;;;;11.40;7.87;;;4.90;99.90;;;;;;5030283;28;20298;-50
2023/03/01 11:16:27;;;;;;;11.77;7.77;;;5.00;99.90;;;;;;5047000;28;20656;-51
2023/03/01 11:19:01;;;;;;;11.53;8.03;;;5.00;99.90;;;;;;5053084;28;20211;-52
2023/03/01 11:21:32;;;;;;;11.40;7.47;;;5.10;99.90;;;;;;5052070;28;20215;-48
2023/03/01 11:24:01;;;;;;;11.07;7.70;;;5.10;99.90;;;;;;5046456;28;20256;-51
2023/03/01 11:26:31;;;;;;;10.00;7.53;;;5.20;99.90;;;;;;5055857;28;20248;-48
2023/03/01 11:29:05;;;;;;;12.43;7.50;;;5.20;99.90;;;;;;5035532;28;20199;-48
2023/03/01 11:31:32;;;;;;;11.87;7.10;;;5.40;99.90;;;;;;5057921;28;20288;-57
2023/03/01 11:34:07;;;;;;;12.57;8.53;;;5.50;99.90;;;;;;5038175;28;20566;-53
2023/03/01 11:36:39;;;;;;;7.20;5.77;;;5.60;99.90;;;;;;5051847;28;20277;-50
2023/03/01 11:39:18;;;;;;;9.43;7.43;;;5.70;99.90;;;;;;5046414;28;20230;-50
2023/03/01 11:41:51;;;;;;;10.00;6.60;;;5.70;99.90;;;;;;5049209;28;20890;-48
2023/03/01 11:44:25;;;;;;;8.67;6.30;;;5.70;99.90;;;;;;5037331;28;20216;-56
2023/03/01 11:47:22;;;;;;;9.17;6.17;;;5.80;99.90;;;;;;5040447;28;20210;-54
2023/03/01 11:50:01;;;;;;;9.30;6.37;;;5.90;99.90;;;;;;5049538;28;20203;-49
2023/03/01 11:52:37;;;;;;;11.07;6.80;;;6.00;99.90;;;;;;5048056;28;20218;-55
2023/03/01 11:55:18;;;;;;;9.33;6.77;;;5.90;99.90;;;;;;5040670;28;20215;-50
2023/03/01 11:58:02;;;;;;;7.63;6.27;;;6.00;99.90;;;;;;5049529;28;20241;-50
2023/03/01 12:00:57;;;;;;;9.37;6.37;;;6.00;99.90;;;;;;5025859;28;20333;-56
2023/03/01 12:03:34;;;;;;;7.40;5.83;;;6.10;99.90;;;;;;5045941;28;20245;-55
2023/03/01 12:06:15;;;;;;;9.03;6.10;;;6.10;99.90;;;;;;5049577;28;20325;-48
2023/03/01 12:09:21;;;;;;;9.43;6.07;;;6.20;99.90;;;;;;5046093;28;20220;-53
2023/03/01 12:12:05;;;;;;;7.97;5.93;;;6.30;99.90;;;;;;5043158;28;20227;-48
2023/03/01 12:14:51;;;;;;;6.33;4.90;;;6.30;99.90;;;;;;5032968;28;20290;-51
2023/03/01 12:17:34;;;;;;;6.87;5.13;;;6.50;99.90;;;;;;5046353;28;20215;-55
2023/03/01 12:20:14;;;;;;;8.10;5.57;;;6.40;99.90;;;;;;5045492;28;20218;-48
2023/03/01 12:22:57;;;;;;;10.17;5.60;;;6.50;99.90;;;;;;5041111;28;20211;-52
2023/03/01 12:25:31;;;;;;;6.73;5.10;;;6.40;99.90;;;;;;5038252;28;20206;-56
2023/03/01 12:28:14;;;;;;;8.00;5.10;;;6.40;99.90;;;;;;5041735;28;20215;-48
2023/03/01 12:31:02;;;;;;;6.53;5.03;;;6.50;99.90;;;;;;5026645;28;20305;-55
2023/03/01 12:33:43;;;;;;;6.80;4.77;;;6.50;99.90;;;;;;5051121;28;20195;-50
2023/03/01 12:36:32;;;;;;;5.37;4.50;;;6.50;99.90;;;;;;5046415;28;20247;-56
2023/03/01 12:39:14;;;;;;;7.30;4.37;;;6.70;99.90;;;;;;5049444;28;20206;-50
2023/03/01 12:41:48;;;;;;;5.83;4.60;;;6.70;99.90;;;;;;5035437;28;20207;-50
2023/03/01 12:44:51;;;;;;;5.20;4.70;;;6.60;99.90;;;;;;5037562;28;20285;-57
2023/03/01 12:47:31;;;;;;;7.60;4.50;;;6.70;99.90;;;;;;5022937;28;20223;-55
2023/03/01 12:50:03;;;;;;;9.40;4.60;;;6.80;99.90;;;;;;5052920;28;20289;-51
2023/03/01 12:52:39;;;;;;;4.53;3.97;;;6.80;99.90;;;;;;5039638;28;20273;-50
2023/03/01 12:55:19;;;;;;;4.97;4.10;;;6.80;99.90;;;;;;5048099;28;20198;-52
2023/03/01 12:57:53;;;;;;;4.83;3.70;;;6.80;99.90;;;;;;5043618;28;20206;-51
2023/03/01 13:00:28;;;;;;;5.77;4.20;;;6.90;99.90;;;;;;5040285;28;20204;-56
2023/03/01 13:03:01;;;;;;;6.50;4.20;;;6.90;99.90;;;;;;5031760;28;20206;-48
2023/03/01 13:05:40;;;;;;;6.40;4.70;;;6.90;99.90;;;;;;5046319;28;20791;-53
2023/03/01 13:08:16;;;;;;;5.43;4.43;;;7.00;99.90;;;;;;5038401;28;20206;-55
2023/03/01 13:10:49;;;;;;;7.90;4.27;;;7.00;99.90;;;;;;5047758;28;20221;-48
2023/03/01 13:13:21;;;;;;;4.70;4.20;;;7.00;99.90;;;;;;5034967;28;20219;-56